Time;durP1;ratioP1;P1;durP2;ratioP2;P2;SDS_P1;SDS_P2;PMS_P1;PMS_P2;Temp;Humidity;BMP_temperature;BMP_pressure;BME280_temperature;BME280_humidity;BME280_pressure;Samples;Min_cycle;Max_cycle;Signal;HPM_P1;HPM_P2
2022/08/17 00:00:59;;;;;;;15.73;8.38;;;26.10;99.90;;;;;;5053613;28;20570;-73
2022/08/17 00:03:30;;;;;;;13.23;9.23;;;26.10;99.90;;;;;;5052055;28;20514;-73
2022/08/17 00:05:59;;;;;;;12.73;8.30;;;26.00;99.90;;;;;;5035826;28;20146;-73
2022/08/17 00:08:31;;;;;;;14.50;7.90;;;26.00;99.90;;;;;;5069275;28;20043;-72
2022/08/17 00:11:00;;;;;;;15.13;8.93;;;26.10;99.90;;;;;;5060725;28;20041;-73
2022/08/17 00:13:32;;;;;;;11.57;8.85;;;26.10;99.90;;;;;;5073429;28;20079;-72
2022/08/17 00:16:07;;;;;;;12.70;8.52;;;26.10;99.90;;;;;;5072269;28;20055;-73
2022/08/17 00:18:35;;;;;;;11.15;8.07;;;26.00;99.90;;;;;;5055503;28;20091;-72
2022/08/17 00:21:05;;;;;;;13.00;8.35;;;26.00;99.90;;;;;;5073039;28;20055;-73
2022/08/17 00:23:34;;;;;;;15.88;8.48;;;26.10;99.90;;;;;;5088198;28;20052;-72
2022/08/17 00:26:03;;;;;;;12.32;7.68;;;26.00;99.90;;;;;;5071776;28;20041;-72
2022/08/17 00:28:34;;;;;;;11.40;8.50;;;26.10;99.90;;;;;;5071672;28;20524;-72
2022/08/17 00:31:02;;;;;;;13.50;7.57;;;26.00;99.90;;;;;;5105122;28;20037;-73
2022/08/17 00:33:31;;;;;;;10.82;9.05;;;26.00;99.90;;;;;;5073211;28;20045;-72
2022/08/17 00:35:59;;;;;;;13.13;8.35;;;25.90;99.90;;;;;;5072959;28;20049;-72
2022/08/17 00:38:28;;;;;;;13.85;8.80;;;25.80;99.90;;;;;;5071658;28;20074;-72
2022/08/17 00:40:59;;;;;;;15.98;8.35;;;25.80;99.90;;;;;;5069714;28;20167;-72
2022/08/17 00:43:40;;;;;;;13.27;8.82;;;25.80;99.90;;;;;;5071699;28;20512;-72
2022/08/17 00:46:14;;;;;;;14.80;8.05;;;25.80;99.90;;;;;;5105284;28;20060;-72
2022/08/17 00:48:42;;;;;;;16.23;8.20;;;25.90;99.90;;;;;;5072073;28;20088;-72
2022/08/17 00:51:51;;;;;;;10.23;7.32;;;25.90;99.90;;;;;;5071292;28;20036;-72
2022/08/17 00:54:27;;;;;;;17.23;8.95;;;25.90;99.90;;;;;;5088148;28;20097;-72
2022/08/17 00:57:03;;;;;;;13.80;9.00;;;25.90;99.90;;;;;;5069446;28;20052;-74
2022/08/17 00:59:48;;;;;;;13.00;8.88;;;25.90;99.90;;;;;;5055224;28;20075;-72
2022/08/17 01:02:18;;;;;;;14.45;8.57;;;25.90;99.90;;;;;;5087808;28;20167;-72
2022/08/17 01:04:48;;;;;;;12.18;8.27;;;25.80;99.90;;;;;;5070992;28;20051;-73
2022/08/17 01:07:18;;;;;;;18.55;9.73;;;25.80;99.90;;;;;;5054686;28;20529;-73
2022/08/17 01:09:47;;;;;;;15.85;9.35;;;25.80;99.90;;;;;;5087997;28;20561;-72
2022/08/17 01:12:14;;;;;;;14.60;9.30;;;25.70;99.90;;;;;;5072238;28;20072;-72
2022/08/17 01:14:42;;;;;;;13.65;8.00;;;25.80;99.90;;;;;;5071016;28;20127;-73
2022/08/17 01:17:10;;;;;;;14.40;9.02;;;25.80;99.90;;;;;;5072032;28;20063;-72
2022/08/17 01:19:41;;;;;;;13.25;9.50;;;25.80;99.90;;;;;;5105125;28;20056;-72
2022/08/17 01:22:11;;;;;;;22.77;9.82;;;25.90;99.90;;;;;;5070945;28;20136;-73
2022/08/17 01:24:46;;;;;;;15.25;9.68;;;25.80;99.90;;;;;;5054194;28;20151;-73
2022/08/17 01:27:16;;;;;;;19.25;10.45;;;25.80;99.90;;;;;;5070610;28;20052;-72
2022/08/17 01:29:49;;;;;;;18.45;10.60;;;25.80;99.90;;;;;;5071975;28;20074;-72
2022/08/17 01:32:18;;;;;;;16.85;10.45;;;25.80;99.90;;;;;;5070898;28;20048;-72
2022/08/17 01:34:46;;;;;;;18.88;10.18;;;25.70;99.90;;;;;;5070714;28;20083;-72
2022/08/17 01:37:15;;;;;;;20.17;10.98;;;25.70;99.90;;;;;;5070404;28;20046;-72
2022/08/17 01:39:52;;;;;;;15.38;10.25;;;25.70;99.90;;;;;;5070584;28;20052;-72
2022/08/17 01:42:36;;;;;;;16.13;11.15;;;25.70;99.90;;;;;;5070535;28;20605;-72
2022/08/17 01:45:12;;;;;;;18.48;9.75;;;25.70;99.90;;;;;;5070402;28;20049;-72
2022/08/17 01:47:40;;;;;;;16.05;10.48;;;25.70;99.90;;;;;;5087217;28;20665;-73
2022/08/17 01:50:23;;;;;;;16.95;11.50;;;25.70;99.90;;;;;;5070244;28;20051;-72
2022/08/17 01:52:54;;;;;;;15.45;10.25;;;25.70;99.90;;;;;;5071595;28;20430;-72
2022/08/17 01:55:35;;;;;;;17.45;11.93;;;25.80;99.90;;;;;;5068650;28;20098;-72
2022/08/17 01:58:08;;;;;;;17.45;10.57;;;25.70;99.90;;;;;;5086995;28;20064;-73
2022/08/17 02:00:39;;;;;;;15.10;10.57;;;25.80;99.90;;;;;;5070128;28;20090;-72
2022/08/17 02:03:07;;;;;;;15.68;10.68;;;25.70;99.90;;;;;;5069820;28;20033;-72
2022/08/17 02:05:35;;;;;;;12.05;10.18;;;25.70;99.90;;;;;;5069843;28;20060;-72
2022/08/17 02:08:03;;;;;;;13.30;10.07;;;25.70;99.90;;;;;;5070068;28;20244;-72
2022/08/17 02:10:32;;;;;;;12.60;9.75;;;25.70;99.90;;;;;;5087122;28;20044;-72
2022/08/17 02:13:01;;;;;;;10.70;8.30;;;25.80;99.90;;;;;;5053282;28;20059;-72
2022/08/17 02:15:29;;;;;;;12.07;8.40;;;25.80;99.90;;;;;;5071079;28;20550;-72
2022/08/17 02:17:56;;;;;;;12.15;8.63;;;25.80;99.90;;;;;;5086848;28;20048;-74
2022/08/17 02:20:24;;;;;;;12.30;8.70;;;25.90;99.90;;;;;;5071124;28;20048;-72
2022/08/17 02:22:51;;;;;;;12.10;8.48;;;25.90;99.90;;;;;;5053161;28;20048;-72
2022/08/17 02:25:21;;;;;;;10.95;9.02;;;25.90;99.90;;;;;;5070624;28;20040;-74
2022/08/17 02:27:50;;;;;;;13.43;8.18;;;25.90;99.90;;;;;;5103213;28;20126;-72
2022/08/17 02:30:18;;;;;;;12.15;8.00;;;25.90;99.90;;;;;;5103197;28;20067;-73
2022/08/17 02:32:45;;;;;;;11.88;7.72;;;25.90;99.90;;;;;;5103226;28;20040;-72
2022/08/17 02:35:13;;;;;;;11.82;8.05;;;25.90;99.90;;;;;;5069338;28;20056;-71
2022/08/17 02:37:43;;;;;;;11.20;8.07;;;25.90;99.90;;;;;;5069245;28;20143;-73
2022/08/17 02:40:11;;;;;;;10.48;8.23;;;25.90;99.90;;;;;;5103326;28;20040;-72
2022/08/17 02:42:41;;;;;;;12.32;7.55;;;25.90;99.90;;;;;;5069648;28;20123;-72
2022/08/17 02:45:21;;;;;;;10.10;7.72;;;25.90;99.90;;;;;;5069303;28;20036;-72
2022/08/17 02:47:49;;;;;;;11.88;8.00;;;25.90;99.90;;;;;;5069583;28;20556;-73
2022/08/17 02:50:19;;;;;;;8.50;7.47;;;26.00;99.90;;;;;;5103181;28;20043;-72
2022/08/17 02:52:49;;;;;;;9.88;8.75;;;26.00;99.90;;;;;;5068981;28;20139;-72
2022/08/17 02:55:28;;;;;;;10.75;7.30;;;26.00;99.90;;;;;;5066537;28;20083;-72
2022/08/17 02:57:56;;;;;;;14.02;8.25;;;26.00;99.90;;;;;;5085988;28;20515;-72
2022/08/17 03:00:32;;;;;;;12.80;8.35;;;26.00;99.90;;;;;;5081968;28;20087;-72
2022/08/17 03:03:01;;;;;;;10.70;7.70;;;26.00;99.90;;;;;;5040708;28;20052;-72
2022/08/17 03:05:31;;;;;;;11.18;8.18;;;26.00;99.90;;;;;;5050425;28;20045;-72
2022/08/17 03:07:59;;;;;;;9.50;8.45;;;26.00;99.90;;;;;;5070541;28;20045;-72
2022/08/17 03:10:28;;;;;;;12.15;8.05;;;26.00;99.90;;;;;;5069961;28;20072;-72
2022/08/17 03:12:56;;;;;;;12.30;8.15;;;26.10;99.90;;;;;;5069887;28;20071;-72
2022/08/17 03:15:26;;;;;;;14.48;8.82;;;26.00;99.90;;;;;;5054421;28;20111;-73
2022/08/17 03:17:55;;;;;;;13.95;8.68;;;26.10;99.90;;;;;;5069770;28;20049;-75
2022/08/17 03:20:24;;;;;;;13.23;7.10;;;26.00;99.90;;;;;;5069567;28;20407;-72
2022/08/17 03:22:54;;;;;;;13.43;8.45;;;26.10;99.90;;;;;;5069583;28;20116;-72
2022/08/17 03:25:25;;;;;;;10.23;8.18;;;26.10;99.90;;;;;;5069517;28;20503;-72
2022/08/17 03:27:54;;;;;;;12.25;7.90;;;26.10;99.90;;;;;;5036529;28;20052;-72
2022/08/17 03:30:23;;;;;;;10.70;7.57;;;26.10;99.90;;;;;;5086696;28;20052;-72
2022/08/17 03:32:54;;;;;;;11.52;7.78;;;26.10;99.90;;;;;;5069817;28;20577;-72
2022/08/17 03:35:25;;;;;;;10.82;7.07;;;26.00;99.90;;;;;;5035974;28;20159;-73
2022/08/17 03:37:53;;;;;;;14.40;7.78;;;26.00;99.90;;;;;;5054303;28;20080;-72
2022/08/17 03:40:21;;;;;;;8.90;6.97;;;26.00;99.90;;;;;;5036370;28;20400;-72
2022/08/17 03:42:52;;;;;;;8.07;6.35;;;26.00;99.90;;;;;;5086165;28;20120;-72
2022/08/17 03:56:41;;;;;;;8.75;5.68;;;25.90;99.90;;;;;;5055942;28;20441;-73
2022/08/17 03:59:17;;;;;;;6.07;5.47;;;25.90;99.90;;;;;;5056061;28;20116;-73
2022/08/17 04:01:48;;;;;;;8.13;5.07;;;25.90;99.90;;;;;;5056101;28;20478;-72
2022/08/17 04:04:16;;;;;;;7.47;5.93;;;25.90;99.90;;;;;;5072572;28;20094;-73
2022/08/17 04:06:44;;;;;;;5.68;5.07;;;25.90;99.90;;;;;;5071659;28;20585;-72
2022/08/17 04:09:12;;;;;;;6.82;5.65;;;25.90;99.90;;;;;;5105362;28;20453;-72
2022/08/17 04:11:40;;;;;;;6.35;5.65;;;25.90;99.90;;;;;;5105855;28;20052;-72
2022/08/17 04:14:08;;;;;;;6.70;5.97;;;25.90;99.90;;;;;;5055842;28;20140;-72
2022/08/17 04:16:36;;;;;;;6.07;5.18;;;25.90;99.90;;;;;;5105774;28;20064;-71
2022/08/17 04:19:04;;;;;;;8.10;6.47;;;26.00;99.90;;;;;;5072069;28;20055;-72
2022/08/17 04:21:32;;;;;;;7.75;6.25;;;25.90;99.90;;;;;;5072279;28;20504;-71
2022/08/17 04:23:59;;;;;;;9.43;6.50;;;25.90;99.90;;;;;;5072266;28;20050;-72
2022/08/17 04:26:28;;;;;;;9.23;6.20;;;25.90;99.90;;;;;;5072141;28;20060;-72
2022/08/17 04:28:57;;;;;;;10.40;6.47;;;26.00;99.90;;;;;;5071742;28;20106;-72
2022/08/17 04:31:26;;;;;;;8.85;6.88;;;26.00;99.90;;;;;;5088277;28;20055;-73
2022/08/17 04:33:54;;;;;;;8.73;6.22;;;26.10;99.90;;;;;;5073127;28;20044;-73
2022/08/17 04:36:21;;;;;;;10.32;7.25;;;26.10;99.90;;;;;;5070839;28;20036;-73
2022/08/17 04:38:49;;;;;;;10.30;6.88;;;26.20;99.90;;;;;;5071819;28;20568;-73
2022/08/17 04:44:03;;;;;;;9.68;7.05;;;26.30;99.90;;;;;;5072892;28;20064;-73
2022/08/17 04:46:34;;;;;;;9.55;6.65;;;26.40;99.90;;;;;;5072656;28;20045;-73
2022/08/17 04:49:05;;;;;;;10.18;8.20;;;26.50;99.90;;;;;;5088022;28;20097;-73
2022/08/17 04:51:34;;;;;;;10.23;6.55;;;26.60;99.90;;;;;;5071559;28;20043;-73
2022/08/17 04:54:08;;;;;;;10.75;6.55;;;26.70;99.90;;;;;;5071515;28;20807;-73
2022/08/17 04:56:37;;;;;;;8.85;7.05;;;26.80;99.90;;;;;;5071686;28;20076;-73
2022/08/17 04:59:10;;;;;;;8.73;7.13;;;27.00;99.90;;;;;;5087895;28;20051;-72
2022/08/17 05:01:39;;;;;;;9.00;7.18;;;27.10;99.90;;;;;;5072478;28;20063;-72
2022/08/17 05:04:10;;;;;;;11.40;6.85;;;27.20;99.90;;;;;;5104845;28;20044;-71
2022/08/17 05:06:38;;;;;;;9.57;6.53;;;27.40;99.90;;;;;;5071294;28;20401;-71
2022/08/17 05:09:05;;;;;;;8.65;6.85;;;27.50;99.90;;;;;;5054726;28;20052;-72
2022/08/17 05:11:33;;;;;;;11.50;7.75;;;27.50;99.90;;;;;;5071240;28;20367;-72
2022/08/17 05:14:02;;;;;;;10.05;6.57;;;27.60;99.90;;;;;;5071389;28;20139;-73
2022/08/17 05:16:29;;;;;;;9.02;7.85;;;27.70;99.90;;;;;;5070875;28;20131;-73
2022/08/17 05:18:58;;;;;;;12.43;8.32;;;27.70;99.90;;;;;;5071217;28;20470;-72
2022/08/17 05:21:26;;;;;;;9.88;6.82;;;27.60;99.90;;;;;;5104454;28;20094;-72
2022/08/17 05:23:57;;;;;;;10.65;6.47;;;27.50;99.90;;;;;;5070846;28;20517;-72
2022/08/17 05:26:27;;;;;;;6.80;5.97;;;27.40;99.90;;;;;;5054309;28;20110;-72
2022/08/17 05:28:56;;;;;;;9.77;6.70;;;27.20;99.90;;;;;;5053511;28;20086;-72
2022/08/17 05:31:23;;;;;;;7.70;6.47;;;27.10;99.90;;;;;;5069521;28;20070;-73
2022/08/17 05:33:52;;;;;;;8.70;6.90;;;26.90;99.90;;;;;;5054525;28;20048;-72
2022/08/17 05:36:19;;;;;;;9.70;6.90;;;26.90;99.90;;;;;;5104205;28;20068;-72
2022/08/17 05:38:47;;;;;;;9.15;6.70;;;26.80;99.90;;;;;;5071898;28;20041;-72
2022/08/17 05:41:15;;;;;;;12.45;7.20;;;26.60;99.90;;;;;;5070235;28;20045;-72
2022/08/17 05:43:42;;;;;;;9.20;6.72;;;26.70;99.90;;;;;;5070510;28;20041;-73
2022/08/17 05:46:14;;;;;;;8.48;6.63;;;26.60;99.90;;;;;;5087222;28;20715;-74
2022/08/17 05:48:48;;;;;;;11.75;7.43;;;26.60;99.90;;;;;;5087686;28;20048;-72
2022/08/17 05:51:31;;;;;;;8.77;6.45;;;26.60;99.90;;;;;;5071493;28;20047;-72
2022/08/17 05:54:34;;;;;;;7.63;5.80;;;26.60;99.90;;;;;;5104105;28;20064;-72
2022/08/17 05:57:17;;;;;;;9.60;6.65;;;26.70;99.90;;;;;;5070122;28;20055;-74
2022/08/17 06:00:00;;;;;;;7.53;5.97;;;26.70;99.90;;;;;;5070276;28;20091;-73
2022/08/17 06:02:48;;;;;;;8.98;6.65;;;26.70;99.90;;;;;;5085381;28;20098;-73
2022/08/17 06:05:37;;;;;;;8.90;6.97;;;26.80;99.90;;;;;;5103387;28;20045;-73
2022/08/17 06:08:19;;;;;;;8.77;6.00;;;26.80;99.90;;;;;;5070237;28;20098;-73
2022/08/17 06:10:49;;;;;;;8.75;6.85;;;26.90;99.90;;;;;;5086545;28;20036;-72
2022/08/17 06:13:35;;;;;;;7.40;5.78;;;27.00;99.90;;;;;;5103806;28;20041;-73
2022/08/17 06:16:17;;;;;;;8.25;7.18;;;27.00;99.90;;;;;;5071279;28;20052;-72
2022/08/17 06:19:01;;;;;;;9.60;7.25;;;27.10;99.90;;;;;;5055430;28;20048;-72
2022/08/17 06:21:34;;;;;;;10.45;7.13;;;27.20;99.90;;;;;;5083300;28;20037;-72
2022/08/17 06:24:09;;;;;;;9.43;7.22;;;27.40;99.90;;;;;;5050174;28;20041;-72
2022/08/17 06:26:39;;;;;;;7.30;5.75;;;27.60;99.90;;;;;;5066490;28;20102;-76
2022/08/17 06:29:26;;;;;;;9.00;6.97;;;27.90;99.90;;;;;;5066575;28;20491;-74
2022/08/17 06:31:54;;;;;;;7.78;5.80;;;28.20;99.90;;;;;;5082894;28;20127;-73
2022/08/17 06:34:22;;;;;;;7.03;5.15;;;28.50;99.90;;;;;;5051087;28;20045;-73
2022/08/17 06:37:18;;;;;;;7.30;5.50;;;28.70;99.90;;;;;;5066288;28;20056;-73
2022/08/17 06:40:23;;;;;;;7.77;5.83;;;29.00;99.90;;;;;;5050915;28;20033;-72
2022/08/17 06:42:56;;;;;;;8.38;5.28;;;29.40;99.90;;;;;;5032994;28;20049;-73
2022/08/17 06:45:30;;;;;;;7.85;5.43;;;29.60;99.90;;;;;;5049491;28;20060;-73
2022/08/17 06:48:14;;;;;;;10.75;6.25;;;29.80;99.90;;;;;;5049482;28;20041;-73
2022/08/17 06:50:49;;;;;;;7.90;5.70;;;30.10;99.90;;;;;;5082787;28;20049;-75
2022/08/17 06:53:23;;;;;;;8.80;4.90;;;30.30;99.90;;;;;;5050637;28;20049;-72
2022/08/17 06:56:10;;;;;;;13.35;6.30;;;30.40;99.90;;;;;;5050863;28;20372;-72
2022/08/17 06:58:40;;;;;;;10.05;6.18;;;30.60;99.90;;;;;;5082607;28;20041;-72
2022/08/17 07:01:17;;;;;;;11.65;6.30;;;30.80;99.90;;;;;;5082320;28;20561;-72
2022/08/17 07:03:44;;;;;;;10.13;6.38;;;31.00;99.90;;;;;;5082659;28;20131;-73
2022/08/17 07:06:19;;;;;;;8.32;5.13;;;31.10;99.90;;;;;;5049352;28;20480;-72
2022/08/17 07:08:50;;;;;;;13.10;6.43;;;31.20;99.90;;;;;;5049481;28;20072;-72
2022/08/17 07:11:32;;;;;;;9.32;6.00;;;31.40;99.90;;;;;;5065487;28;20064;-72
2022/08/17 07:14:03;;;;;;;10.75;5.38;;;31.50;99.90;;;;;;5068003;28;20513;-73
2022/08/17 07:16:35;;;;;;;10.65;5.25;;;31.60;99.90;;;;;;5102827;28;20057;-72
2022/08/17 07:19:06;;;;;;;9.77;5.20;;;31.60;99.90;;;;;;5052652;28;20048;-72
2022/08/17 07:21:58;;;;;;;10.20;6.00;;;31.70;99.90;;;;;;5102983;28;20386;-72
2022/08/17 07:24:31;;;;;;;9.90;5.45;;;31.80;99.90;;;;;;5069154;28;20044;-73
2022/08/17 07:27:11;;;;;;;7.13;5.18;;;31.90;99.90;;;;;;5069355;28;20048;-72
2022/08/17 07:30:06;;;;;;;7.32;5.15;;;32.00;99.90;;;;;;5085509;28;20060;-72
2022/08/17 07:32:43;;;;;;;10.52;5.38;;;32.10;99.90;;;;;;5074918;28;20475;-72
2022/08/17 07:35:14;;;;;;;7.43;4.50;;;32.00;99.90;;;;;;5085660;28;20048;-73
2022/08/17 07:37:52;;;;;;;9.52;5.25;;;32.00;99.90;;;;;;5102673;28;20055;-72
2022/08/17 07:40:35;;;;;;;10.10;5.32;;;32.00;99.90;;;;;;5102851;28;20057;-73
2022/08/17 07:43:11;;;;;;;7.40;4.65;;;32.10;99.90;;;;;;5085339;28;20049;-72
2022/08/17 07:48:54;;;;;;;6.40;4.40;;;32.40;99.90;;;;;;5070145;28;20494;-72
2022/08/17 07:51:44;;;;;;;10.07;4.97;;;32.50;99.90;;;;;;5068684;28;20546;-72
2022/08/17 07:54:15;;;;;;;8.55;4.43;;;32.50;99.90;;;;;;5078751;28;20107;-73
2022/08/17 07:56:48;;;;;;;11.20;4.80;;;32.50;99.90;;;;;;5106213;28;20052;-72
2022/08/17 07:59:17;;;;;;;7.65;4.38;;;32.60;99.90;;;;;;5055828;28;20094;-72
2022/08/17 08:02:04;;;;;;;9.43;4.50;;;32.60;99.90;;;;;;5106104;28;20048;-72
2022/08/17 08:04:49;;;;;;;8.77;5.20;;;32.60;99.90;;;;;;5089295;28;20422;-74
2022/08/17 08:07:53;;;;;;;8.13;4.18;;;32.50;99.90;;;;;;5055658;28;20098;-73
2022/08/17 08:11:02;;;;;;;6.78;4.40;;;32.20;99.90;;;;;;5106196;28;20376;-73
2022/08/17 08:13:31;;;;;;;9.43;4.93;;;32.30;99.90;;;;;;5072279;28;20045;-72
2022/08/17 08:16:18;;;;;;;9.30;5.07;;;32.20;99.90;;;;;;5072194;28;20037;-72
2022/08/17 08:18:52;;;;;;;10.18;4.35;;;32.30;99.90;;;;;;5105534;28;20060;-74
2022/08/17 08:21:50;;;;;;;8.38;4.45;;;32.30;99.90;;;;;;5072205;28;20064;-73
2022/08/17 08:24:20;;;;;;;8.73;5.30;;;32.30;99.90;;;;;;5071910;28;20048;-73
2022/08/17 08:27:41;;;;;;;13.27;5.28;;;32.50;99.90;;;;;;5071936;28;20052;-73
2022/08/17 08:30:14;;;;;;;6.30;3.95;;;32.70;99.90;;;;;;5061166;28;20056;-74
2022/08/17 08:33:07;;;;;;;9.48;4.30;;;32.80;99.90;;;;;;5088621;28;20091;-72
2022/08/17 08:35:52;;;;;;;9.82;4.50;;;33.00;99.50;;;;;;5089173;28;20056;-72
2022/08/17 08:38:44;;;;;;;8.47;3.70;;;33.00;99.70;;;;;;5088804;28;20060;-75
2022/08/17 08:41:20;;;;;;;7.35;4.28;;;33.20;99.70;;;;;;5071697;28;20045;-72
2022/08/17 08:44:12;;;;;;;9.98;4.18;;;33.30;99.00;;;;;;5072784;28;20364;-72
2022/08/17 08:47:05;;;;;;;8.23;4.43;;;33.30;98.20;;;;;;5088350;28;20123;-73
2022/08/17 08:49:50;;;;;;;6.70;3.92;;;33.40;98.40;;;;;;5105380;28;20048;-73
2022/08/17 08:52:42;;;;;;;8.10;4.13;;;33.50;98.00;;;;;;5105606;28;20075;-74
2022/08/17 08:55:50;;;;;;;7.60;3.85;;;33.50;97.60;;;;;;5105285;28;20037;-72
2022/08/17 08:58:22;;;;;;;9.13;4.07;;;33.60;97.50;;;;;;5036425;28;20115;-72
2022/08/17 09:00:55;;;;;;;7.32;4.30;;;33.70;97.10;;;;;;5052688;28;20072;-72
2022/08/17 09:03:37;;;;;;;15.93;4.18;;;33.80;96.70;;;;;;5050364;28;20471;-72
2022/08/17 09:06:34;;;;;;;7.50;4.38;;;33.70;96.60;;;;;;5065684;28;20500;-73
2022/08/17 09:09:56;;;;;;;11.48;4.22;;;33.60;96.40;;;;;;5067749;28;20041;-74
2022/08/17 09:12:52;;;;;;;7.15;4.07;;;33.60;96.30;;;;;;5050172;28;20522;-72
2022/08/17 09:15:29;;;;;;;7.27;4.13;;;33.70;96.10;;;;;;5051869;28;20052;-72
2022/08/17 09:18:07;;;;;;;6.68;4.00;;;33.70;95.90;;;;;;5051250;28;20080;-73
2022/08/17 09:21:04;;;;;;;6.95;3.80;;;33.60;95.40;;;;;;5067610;28;20048;-72
2022/08/17 09:24:03;;;;;;;7.35;4.10;;;33.80;95.30;;;;;;5052301;28;20041;-73
2022/08/17 09:26:45;;;;;;;10.13;4.63;;;33.80;94.80;;;;;;5050830;28;20049;-72
2022/08/17 09:29:16;;;;;;;8.30;4.28;;;33.90;94.70;;;;;;5050589;28;20052;-72
2022/08/17 09:32:02;;;;;;;7.38;4.00;;;33.80;94.60;;;;;;5067520;28;20508;-73
2022/08/17 09:34:37;;;;;;;8.85;3.95;;;34.00;95.00;;;;;;5067867;28;20048;-73
2022/08/17 09:37:30;;;;;;;9.65;5.40;;;34.10;95.20;;;;;;5050511;28;20052;-72
2022/08/17 09:40:17;;;;;;;7.95;4.07;;;34.20;94.90;;;;;;5084526;28;20068;-72
2022/08/17 09:42:52;;;;;;;12.07;4.70;;;33.90;94.80;;;;;;5083526;28;20132;-73
2022/08/17 09:45:27;;;;;;;7.22;4.50;;;33.70;95.30;;;;;;5050882;28;20074;-72
2022/08/17 09:48:05;;;;;;;8.30;4.47;;;33.80;95.40;;;;;;5051644;28;20090;-73
2022/08/17 09:50:39;;;;;;;7.28;4.20;;;34.00;95.10;;;;;;5051657;28;20148;-75
2022/08/17 09:53:07;;;;;;;8.73;4.43;;;34.20;94.50;;;;;;5050176;28;20060;-73
2022/08/17 09:56:08;;;;;;;7.25;4.75;;;34.20;94.20;;;;;;5066910;28;20116;-73
2022/08/17 09:58:49;;;;;;;12.02;5.15;;;34.20;93.90;;;;;;5083706;28;20656;-73
2022/08/17 10:01:23;;;;;;;10.52;4.85;;;34.30;93.80;;;;;;5083122;28;20091;-73
2022/08/17 10:04:12;;;;;;;8.73;4.82;;;34.10;93.60;;;;;;5083522;28;20077;-71
2022/08/17 10:06:57;;;;;;;6.85;4.57;;;34.10;93.80;;;;;;5083803;28;20102;-72
2022/08/17 10:09:34;;;;;;;12.32;5.70;;;34.00;93.90;;;;;;5050131;28;20052;-71
2022/08/17 10:12:14;;;;;;;9.68;5.13;;;34.00;94.10;;;;;;5050085;28;20106;-72
2022/08/17 10:15:00;;;;;;;10.15;4.72;;;34.00;94.00;;;;;;5083079;28;20048;-72
2022/08/17 10:17:40;;;;;;;7.78;4.40;;;34.10;93.90;;;;;;5049951;28;20060;-73
2022/08/17 10:20:26;;;;;;;9.00;5.35;;;34.00;93.30;;;;;;5083328;28;20045;-73
2022/08/17 10:26:14;;;;;;;9.00;5.35;;;34.00;94.30;;;;;;5051343;28;20499;-72
2022/08/17 10:29:11;;;;;;;9.65;4.38;;;34.10;94.20;;;;;;5083057;28;20061;-73
2022/08/17 10:31:46;;;;;;;9.68;4.70;;;34.10;93.70;;;;;;5083117;28;20044;-73
2022/08/17 10:34:45;;;;;;;11.43;5.38;;;34.20;93.80;;;;;;5066360;28;20067;-72
2022/08/17 10:37:18;;;;;;;9.13;4.55;;;34.20;94.70;;;;;;5066045;28;20053;-72
2022/08/17 10:40:10;;;;;;;8.13;4.25;;;34.20;95.10;;;;;;5066092;28;20037;-72
2022/08/17 10:43:31;;;;;;;7.75;4.45;;;34.20;95.00;;;;;;5083009;28;20056;-72
2022/08/17 10:46:01;;;;;;;9.70;5.60;;;34.20;94.80;;;;;;5027110;28;20059;-72
2022/08/17 10:48:35;;;;;;;8.82;4.97;;;34.10;95.40;;;;;;5066425;28;20052;-72
2022/08/17 10:51:08;;;;;;;8.68;5.43;;;33.80;95.90;;;;;;5065691;28;20069;-73
2022/08/17 10:53:39;;;;;;;7.88;4.93;;;33.70;96.30;;;;;;5082993;28;20083;-72
2022/08/17 10:56:13;;;;;;;7.43;5.10;;;33.50;96.30;;;;;;5082569;28;20102;-72
2022/08/17 10:58:54;;;;;;;10.02;5.35;;;33.50;96.70;;;;;;5050705;28;20041;-71
2022/08/17 11:01:37;;;;;;;14.48;5.25;;;33.50;96.70;;;;;;5049433;28;20056;-71
2022/08/17 11:04:16;;;;;;;12.45;4.95;;;33.40;96.70;;;;;;5082656;28;20056;-72
2022/08/17 11:06:50;;;;;;;11.10;5.28;;;33.40;96.60;;;;;;5082899;28;20561;-72
2022/08/17 11:09:37;;;;;;;7.68;5.10;;;33.50;96.40;;;;;;5082433;28;20064;-72
2022/08/17 11:12:27;;;;;;;6.95;4.32;;;33.40;96.30;;;;;;5082648;28;20055;-72
2022/08/17 11:15:17;;;;;;;6.63;4.40;;;33.30;96.10;;;;;;5082739;28;20082;-72
2022/08/17 11:18:00;;;;;;;9.32;5.15;;;33.30;95.50;;;;;;5082741;28;20092;-72
2022/08/17 11:20:42;;;;;;;8.32;4.57;;;33.20;95.40;;;;;;5082258;28;20068;-72
2022/08/17 11:23:39;;;;;;;6.60;4.35;;;33.30;95.50;;;;;;5065534;28;20045;-71
2022/08/17 11:26:46;;;;;;;8.23;4.53;;;33.30;95.30;;;;;;5049055;28;20045;-72
2022/08/17 11:29:22;;;;;;;6.10;3.88;;;33.20;95.30;;;;;;5068385;28;20130;-72
2022/08/17 11:32:05;;;;;;;9.98;5.10;;;33.20;95.60;;;;;;5053253;28;20076;-71
2022/08/17 11:34:33;;;;;;;8.50;4.35;;;33.20;95.50;;;;;;5069784;28;20082;-72
2022/08/17 11:37:07;;;;;;;9.43;5.18;;;33.20;95.30;;;;;;5069571;28;20130;-72
2022/08/17 11:40:04;;;;;;;10.27;5.32;;;33.20;95.10;;;;;;5054149;28;20132;-73
2022/08/17 11:42:53;;;;;;;9.60;4.25;;;33.20;94.70;;;;;;5069580;28;20044;-72
2022/08/17 11:45:29;;;;;;;5.60;3.33;;;33.20;94.00;;;;;;5054014;28;20056;-72
2022/08/17 11:54:08;;;;;;;8.38;3.83;;;33.10;93.20;;;;;;5073954;28;20049;-72
2022/08/17 11:56:58;;;;;;;9.02;3.70;;;33.00;93.00;;;;;;5098815;28;20040;-71
2022/08/17 11:59:31;;;;;;;6.55;3.55;;;32.90;93.00;;;;;;5073792;28;20076;-73
2022/08/17 12:02:01;;;;;;;5.47;3.83;;;32.80;92.70;;;;;;5106001;28;20545;-72
2022/08/17 12:04:34;;;;;;;8.65;3.50;;;32.90;92.10;;;;;;5072406;28;20109;-73
2022/08/17 12:07:16;;;;;;;6.63;3.58;;;32.90;91.70;;;;;;5089080;28;20127;-73
2022/08/17 12:09:49;;;;;;;5.68;3.05;;;32.90;91.20;;;;;;5106358;28;20451;-73
2022/08/17 12:12:32;;;;;;;8.13;3.53;;;32.90;91.20;;;;;;5089432;28;20515;-72
2022/08/17 12:15:02;;;;;;;4.13;2.97;;;33.00;91.10;;;;;;5072600;28;20076;-72
2022/08/17 12:17:36;;;;;;;6.30;3.22;;;33.00;91.10;;;;;;5103562;28;20047;-72
2022/08/17 12:20:27;;;;;;;5.22;3.10;;;33.00;91.50;;;;;;5055231;28;20106;-72
2022/08/17 12:23:03;;;;;;;6.32;2.78;;;33.00;91.70;;;;;;5076728;28;20056;-72
2022/08/17 12:25:43;;;;;;;8.00;2.85;;;33.00;91.70;;;;;;5072199;28;20041;-72
2022/08/17 12:28:32;;;;;;;7.05;3.50;;;33.00;91.10;;;;;;5055182;28;20056;-72
2022/08/17 12:31:06;;;;;;;7.55;3.20;;;32.80;90.90;;;;;;5072463;28;20044;-71
2022/08/17 12:33:41;;;;;;;7.13;3.93;;;32.80;90.90;;;;;;5105564;28;20466;-73
2022/08/17 12:36:14;;;;;;;6.50;2.85;;;32.90;91.30;;;;;;5073222;28;20430;-71
2022/08/17 12:38:50;;;;;;;6.88;3.35;;;32.90;90.90;;;;;;5072893;28;20490;-72
2022/08/17 12:41:43;;;;;;;8.93;3.10;;;32.90;90.60;;;;;;5086553;28;20082;-72
2022/08/17 12:44:11;;;;;;;6.03;2.88;;;32.80;90.40;;;;;;5052146;28;20136;-72
2022/08/17 12:46:55;;;;;;;7.07;3.22;;;32.80;90.40;;;;;;5068463;28;20376;-71
2022/08/17 12:49:39;;;;;;;6.82;3.50;;;32.70;90.50;;;;;;5051566;28;20098;-72
2022/08/17 12:52:13;;;;;;;5.90;2.85;;;32.70;90.70;;;;;;5052999;28;20049;-72
2022/08/17 12:54:49;;;;;;;6.60;3.15;;;32.60;90.70;;;;;;5051440;28;20045;-72
2022/08/17 12:57:22;;;;;;;7.88;3.55;;;32.60;90.40;;;;;;5067932;28;20824;-73
2022/08/17 12:59:57;;;;;;;6.47;2.50;;;32.60;90.50;;;;;;5068000;28;20047;-72
2022/08/17 13:02:30;;;;;;;8.43;3.28;;;32.60;90.40;;;;;;5068099;28;20048;-72
2022/08/17 13:04:59;;;;;;;6.95;3.03;;;32.70;90.30;;;;;;5084688;28;20041;-72
2022/08/17 13:07:43;;;;;;;6.10;2.92;;;32.70;90.20;;;;;;5067868;28;20076;-71
2022/08/17 13:10:37;;;;;;;8.65;3.30;;;32.70;90.00;;;;;;5067618;28;20518;-74
2022/08/17 13:13:22;;;;;;;7.05;3.63;;;32.70;89.70;;;;;;5050665;28;20103;-72
2022/08/17 13:15:54;;;;;;;7.07;3.00;;;32.70;89.70;;;;;;5050814;28;20143;-72
2022/08/17 13:18:40;;;;;;;7.63;3.65;;;32.60;89.80;;;;;;5067593;28;20140;-72
2022/08/17 13:21:22;;;;;;;7.43;3.35;;;32.60;89.60;;;;;;5052223;28;20052;-72
2022/08/17 13:24:16;;;;;;;6.20;3.15;;;32.60;89.90;;;;;;5067676;28;20095;-72
2022/08/17 13:27:07;;;;;;;10.68;3.30;;;32.60;90.00;;;;;;5050810;28;20048;-72
2022/08/17 13:29:44;;;;;;;8.50;3.00;;;32.50;90.10;;;;;;5050382;28;20060;-72
2022/08/17 13:32:16;;;;;;;8.15;2.80;;;32.40;90.20;;;;;;5084332;28;20052;-72
2022/08/17 13:34:53;;;;;;;6.53;2.95;;;32.40;90.30;;;;;;5039654;28;20045;-72
2022/08/17 13:37:33;;;;;;;10.00;3.47;;;32.50;90.20;;;;;;5087095;28;20139;-72
2022/08/17 13:40:07;;;;;;;6.03;2.88;;;32.50;90.10;;;;;;5071977;28;20479;-72
2022/08/17 13:42:48;;;;;;;10.25;2.95;;;32.40;90.20;;;;;;5104462;28;20051;-75
2022/08/17 13:45:31;;;;;;;7.82;2.78;;;32.30;90.20;;;;;;5070411;28;20063;-74
2022/08/17 13:48:08;;;;;;;6.90;2.75;;;32.30;90.20;;;;;;5087206;28;20098;-72
2022/08/17 13:50:39;;;;;;;4.72;2.67;;;32.30;90.10;;;;;;5086753;28;20056;-72
2022/08/17 13:53:25;;;;;;;5.80;2.58;;;32.30;88.70;;;;;;5104058;28;20036;-72
2022/08/17 13:55:58;;;;;;;4.53;2.58;;;32.40;87.10;;;;;;5103842;28;20483;-72
2022/08/17 13:58:39;;;;;;;7.30;3.13;;;32.40;87.10;;;;;;5071797;28;20052;-75